Terminal Aerodrome Forecast
Issued by NWS

Home | Current Version | Previous Version | Text Only | Print | Product List | Glossary On
Versions: 1 2 3 4 5 6 7 8 9 10 11 12 13 14 15 16 17 18 19 20 21 22 23 24 25 26 27 28 29 30 31 32 33 34 35 36
844
FTUS43 KDVN 222058 AAB
TAFCID
TAF AMD
KCID 222058Z 2221/2318 15003KT P6SM VCTS BKN050CB
     FM230500 14006KT P6SM VCSH BKN080
     FM231400 11005KT P6SM BKN040=

USA.gov is the U.S. government's official web portal to all federal, state and local government web resources and services.